sensor_id;sensor_type;location;lat;lon;timestamp;P1;durP1;ratioP1;P2;durP2;ratioP2
85095;SDS011;75436;53.502;10.030;2024-01-30T00:00:11;9.65;;;6.53;;
85095;SDS011;75436;53.502;10.030;2024-01-30T00:02:36;13.48;;;6.85;;
85095;SDS011;75436;53.502;10.030;2024-01-30T00:05:02;11.82;;;6.85;;
85095;SDS011;75436;53.502;10.030;2024-01-30T00:07:29;13.20;;;7.03;;
85095;SDS011;75436;53.502;10.030;2024-01-30T00:09:55;10.32;;;6.72;;
85095;SDS011;75436;53.502;10.030;2024-01-30T00:12:21;10.98;;;6.43;;
85095;SDS011;75436;53.502;10.030;2024-01-30T00:14:46;10.07;;;5.90;;
85095;SDS011;75436;53.502;10.030;2024-01-30T00:17:11;11.93;;;7.03;;
85095;SDS011;75436;53.502;10.030;2024-01-30T00:19:37;12.48;;;6.47;;
85095;SDS011;75436;53.502;10.030;2024-01-30T00:22:02;11.30;;;6.63;;
85095;SDS011;75436;53.502;10.030;2024-01-30T00:24:28;10.05;;;6.60;;
85095;SDS011;75436;53.502;10.030;2024-01-30T00:26:55;12.27;;;6.75;;
85095;SDS011;75436;53.502;10.030;2024-01-30T00:29:21;13.18;;;6.75;;
85095;SDS011;75436;53.502;10.030;2024-01-30T00:31:48;11.48;;;6.47;;
85095;SDS011;75436;53.502;10.030;2024-01-30T00:34:13;11.65;;;6.20;;
85095;SDS011;75436;53.502;10.030;2024-01-30T00:36:40;9.38;;;6.25;;
85095;SDS011;75436;53.502;10.030;2024-01-30T00:39:06;10.55;;;6.10;;
85095;SDS011;75436;53.502;10.030;2024-01-30T00:41:34;12.60;;;6.43;;
85095;SDS011;75436;53.502;10.030;2024-01-30T00:43:59;11.70;;;6.78;;
85095;SDS011;75436;53.502;10.030;2024-01-30T00:46:26;9.98;;;5.70;;
85095;SDS011;75436;53.502;10.030;2024-01-30T00:48:51;13.05;;;6.38;;
85095;SDS011;75436;53.502;10.030;2024-01-30T00:51:17;12.13;;;6.82;;
85095;SDS011;75436;53.502;10.030;2024-01-30T00:53:42;11.52;;;6.50;;
85095;SDS011;75436;53.502;10.030;2024-01-30T00:56:07;11.40;;;6.43;;
85095;SDS011;75436;53.502;10.030;2024-01-30T00:58:33;12.90;;;6.35;;
85095;SDS011;75436;53.502;10.030;2024-01-30T01:00:59;10.70;;;5.85;;
85095;SDS011;75436;53.502;10.030;2024-01-30T01:03:24;13.52;;;7.03;;
85095;SDS011;75436;53.502;10.030;2024-01-30T01:05:50;12.15;;;6.50;;
85095;SDS011;75436;53.502;10.030;2024-01-30T01:08:15;11.10;;;6.25;;
85095;SDS011;75436;53.502;10.030;2024-01-30T01:10:43;10.68;;;5.68;;
85095;SDS011;75436;53.502;10.030;2024-01-30T01:13:10;10.38;;;5.95;;
85095;SDS011;75436;53.502;10.030;2024-01-30T01:15:36;11.65;;;6.20;;
85095;SDS011;75436;53.502;10.030;2024-01-30T01:18:02;10.00;;;6.22;;
85095;SDS011;75436;53.502;10.030;2024-01-30T01:20:31;11.77;;;6.10;;
85095;SDS011;75436;53.502;10.030;2024-01-30T01:22:56;11.10;;;6.20;;
85095;SDS011;75436;53.502;10.030;2024-01-30T01:25:22;14.05;;;6.35;;
85095;SDS011;75436;53.502;10.030;2024-01-30T01:27:50;11.18;;;6.68;;
85095;SDS011;75436;53.502;10.030;2024-01-30T01:30:21;10.32;;;5.72;;
85095;SDS011;75436;53.502;10.030;2024-01-30T01:32:49;9.57;;;5.55;;
85095;SDS011;75436;53.502;10.030;2024-01-30T01:35:26;10.82;;;6.25;;
85095;SDS011;75436;53.502;10.030;2024-01-30T01:37:53;13.27;;;6.45;;
85095;SDS011;75436;53.502;10.030;2024-01-30T01:40:20;12.80;;;6.07;;
85095;SDS011;75436;53.502;10.030;2024-01-30T01:42:56;11.90;;;6.93;;
85095;SDS011;75436;53.502;10.030;2024-01-30T01:45:22;12.93;;;6.35;;
85095;SDS011;75436;53.502;10.030;2024-01-30T01:47:50;11.07;;;6.25;;
85095;SDS011;75436;53.502;10.030;2024-01-30T01:50:18;10.38;;;5.97;;
85095;SDS011;75436;53.502;10.030;2024-01-30T01:52:50;9.20;;;6.10;;
85095;SDS011;75436;53.502;10.030;2024-01-30T01:55:20;10.30;;;6.10;;
85095;SDS011;75436;53.502;10.030;2024-01-30T01:57:51;14.63;;;6.95;;
85095;SDS011;75436;53.502;10.030;2024-01-30T02:00:20;9.88;;;5.78;;
85095;SDS011;75436;53.502;10.030;2024-01-30T02:02:45;8.63;;;5.75;;
85095;SDS011;75436;53.502;10.030;2024-01-30T02:05:12;11.68;;;6.80;;
85095;SDS011;75436;53.502;10.030;2024-01-30T02:07:42;10.68;;;6.10;;
85095;SDS011;75436;53.502;10.030;2024-01-30T02:10:09;10.02;;;6.20;;
85095;SDS011;75436;53.502;10.030;2024-01-30T02:12:35;11.68;;;6.43;;
85095;SDS011;75436;53.502;10.030;2024-01-30T02:15:00;9.02;;;6.00;;
85095;SDS011;75436;53.502;10.030;2024-01-30T02:17:26;14.13;;;6.72;;
85095;SDS011;75436;53.502;10.030;2024-01-30T02:19:53;11.75;;;5.97;;
85095;SDS011;75436;53.502;10.030;2024-01-30T02:22:19;12.48;;;6.93;;
85095;SDS011;75436;53.502;10.030;2024-01-30T02:24:47;11.85;;;6.00;;
85095;SDS011;75436;53.502;10.030;2024-01-30T02:27:15;10.48;;;6.20;;
85095;SDS011;75436;53.502;10.030;2024-01-30T02:29:40;12.10;;;6.65;;
85095;SDS011;75436;53.502;10.030;2024-01-30T02:32:07;9.88;;;6.00;;
85095;SDS011;75436;53.502;10.030;2024-01-30T02:34:35;9.68;;;5.97;;
85095;SDS011;75436;53.502;10.030;2024-01-30T02:37:01;12.60;;;6.05;;
85095;SDS011;75436;53.502;10.030;2024-01-30T02:39:27;9.25;;;5.57;;
85095;SDS011;75436;53.502;10.030;2024-01-30T02:41:52;10.95;;;6.50;;
85095;SDS011;75436;53.502;10.030;2024-01-30T02:44:18;9.65;;;6.05;;
85095;SDS011;75436;53.502;10.030;2024-01-30T02:46:43;11.13;;;6.10;;
85095;SDS011;75436;53.502;10.030;2024-01-30T02:49:08;11.68;;;6.65;;
85095;SDS011;75436;53.502;10.030;2024-01-30T02:51:34;10.23;;;6.28;;
85095;SDS011;75436;53.502;10.030;2024-01-30T02:53:59;9.88;;;6.10;;
85095;SDS011;75436;53.502;10.030;2024-01-30T02:56:26;11.10;;;6.50;;
85095;SDS011;75436;53.502;10.030;2024-01-30T02:58:51;10.57;;;6.32;;
85095;SDS011;75436;53.502;10.030;2024-01-30T03:01:17;10.02;;;5.72;;
85095;SDS011;75436;53.502;10.030;2024-01-30T03:03:42;14.60;;;7.05;;
85095;SDS011;75436;53.502;10.030;2024-01-30T03:06:08;11.30;;;6.57;;
85095;SDS011;75436;53.502;10.030;2024-01-30T03:08:34;12.82;;;7.07;;
85095;SDS011;75436;53.502;10.030;2024-01-30T03:11:00;10.82;;;6.20;;
85095;SDS011;75436;53.502;10.030;2024-01-30T03:13:26;9.80;;;5.95;;
85095;SDS011;75436;53.502;10.030;2024-01-30T03:15:52;10.98;;;6.38;;
85095;SDS011;75436;53.502;10.030;2024-01-30T03:18:17;11.85;;;6.35;;
85095;SDS011;75436;53.502;10.030;2024-01-30T03:20:43;10.70;;;6.72;;
85095;SDS011;75436;53.502;10.030;2024-01-30T03:23:08;11.20;;;6.15;;
85095;SDS011;75436;53.502;10.030;2024-01-30T03:25:33;9.95;;;6.50;;
85095;SDS011;75436;53.502;10.030;2024-01-30T03:27:59;10.98;;;6.70;;
85095;SDS011;75436;53.502;10.030;2024-01-30T03:30:24;13.23;;;6.63;;
85095;SDS011;75436;53.502;10.030;2024-01-30T03:32:50;11.60;;;7.45;;
85095;SDS011;75436;53.502;10.030;2024-01-30T03:35:18;10.23;;;6.45;;
85095;SDS011;75436;53.502;10.030;2024-01-30T03:37:46;11.43;;;6.72;;
85095;SDS011;75436;53.502;10.030;2024-01-30T03:40:12;13.88;;;6.72;;
85095;SDS011;75436;53.502;10.030;2024-01-30T03:42:39;12.00;;;6.70;;
85095;SDS011;75436;53.502;10.030;2024-01-30T03:45:06;14.02;;;7.35;;
85095;SDS011;75436;53.502;10.030;2024-01-30T03:47:32;13.15;;;7.22;;
85095;SDS011;75436;53.502;10.030;2024-01-30T03:50:00;14.23;;;7.40;;
85095;SDS011;75436;53.502;10.030;2024-01-30T03:52:27;13.60;;;7.53;;
85095;SDS011;75436;53.502;10.030;2024-01-30T03:54:53;14.88;;;7.60;;
85095;SDS011;75436;53.502;10.030;2024-01-30T03:57:20;12.05;;;7.40;;
85095;SDS011;75436;53.502;10.030;2024-01-30T03:59:47;14.07;;;8.15;;
85095;SDS011;75436;53.502;10.030;2024-01-30T04:02:15;19.38;;;7.82;;
85095;SDS011;75436;53.502;10.030;2024-01-30T04:04:43;13.25;;;7.70;;
85095;SDS011;75436;53.502;10.030;2024-01-30T04:07:10;12.85;;;8.02;;
85095;SDS011;75436;53.502;10.030;2024-01-30T04:09:36;15.60;;;8.05;;
85095;SDS011;75436;53.502;10.030;2024-01-30T04:12:03;13.27;;;7.72;;
85095;SDS011;75436;53.502;10.030;2024-01-30T04:14:29;14.95;;;7.88;;
85095;SDS011;75436;53.502;10.030;2024-01-30T04:16:55;16.27;;;8.32;;
85095;SDS011;75436;53.502;10.030;2024-01-30T04:19:21;14.00;;;7.60;;
85095;SDS011;75436;53.502;10.030;2024-01-30T04:21:47;14.73;;;8.10;;
85095;SDS011;75436;53.502;10.030;2024-01-30T04:24:12;14.05;;;7.78;;
85095;SDS011;75436;53.502;10.030;2024-01-30T04:26:39;13.05;;;7.68;;
85095;SDS011;75436;53.502;10.030;2024-01-30T04:29:05;14.27;;;7.53;;
85095;SDS011;75436;53.502;10.030;2024-01-30T04:31:31;17.08;;;8.40;;
85095;SDS011;75436;53.502;10.030;2024-01-30T04:33:56;17.98;;;7.80;;
85095;SDS011;75436;53.502;10.030;2024-01-30T04:36:23;12.52;;;7.57;;
85095;SDS011;75436;53.502;10.030;2024-01-30T04:38:49;13.80;;;8.00;;
85095;SDS011;75436;53.502;10.030;2024-01-30T04:41:16;13.27;;;7.05;;
85095;SDS011;75436;53.502;10.030;2024-01-30T04:43:41;14.77;;;8.38;;
85095;SDS011;75436;53.502;10.030;2024-01-30T04:46:08;16.48;;;9.55;;
85095;SDS011;75436;53.502;10.030;2024-01-30T04:48:35;18.10;;;8.88;;
85095;SDS011;75436;53.502;10.030;2024-01-30T04:51:02;15.20;;;8.75;;
85095;SDS011;75436;53.502;10.030;2024-01-30T04:53:32;15.80;;;9.27;;
85095;SDS011;75436;53.502;10.030;2024-01-30T04:55:59;15.60;;;8.63;;
85095;SDS011;75436;53.502;10.030;2024-01-30T04:58:24;14.20;;;8.05;;
85095;SDS011;75436;53.502;10.030;2024-01-30T05:00:50;20.10;;;9.15;;
85095;SDS011;75436;53.502;10.030;2024-01-30T05:03:18;16.98;;;9.25;;
85095;SDS011;75436;53.502;10.030;2024-01-30T05:05:44;14.57;;;8.55;;
85095;SDS011;75436;53.502;10.030;2024-01-30T05:08:11;21.65;;;9.27;;
85095;SDS011;75436;53.502;10.030;2024-01-30T05:10:36;13.73;;;8.73;;
85095;SDS011;75436;53.502;10.030;2024-01-30T05:13:02;14.15;;;8.75;;
85095;SDS011;75436;53.502;10.030;2024-01-30T05:15:27;14.77;;;9.18;;
85095;SDS011;75436;53.502;10.030;2024-01-30T05:17:53;14.30;;;9.23;;
85095;SDS011;75436;53.502;10.030;2024-01-30T05:20:19;17.83;;;9.07;;
85095;SDS011;75436;53.502;10.030;2024-01-30T05:22:45;14.93;;;9.10;;
85095;SDS011;75436;53.502;10.030;2024-01-30T05:25:12;15.32;;;9.35;;
85095;SDS011;75436;53.502;10.030;2024-01-30T05:27:38;15.30;;;8.55;;
85095;SDS011;75436;53.502;10.030;2024-01-30T05:30:05;16.08;;;9.02;;
85095;SDS011;75436;53.502;10.030;2024-01-30T05:32:33;14.90;;;9.38;;
85095;SDS011;75436;53.502;10.030;2024-01-30T05:34:59;18.15;;;8.32;;
85095;SDS011;75436;53.502;10.030;2024-01-30T05:37:24;14.57;;;8.60;;
85095;SDS011;75436;53.502;10.030;2024-01-30T05:39:52;20.23;;;10.05;;
85095;SDS011;75436;53.502;10.030;2024-01-30T05:42:17;14.98;;;8.18;;
85095;SDS011;75436;53.502;10.030;2024-01-30T05:44:43;16.88;;;9.57;;
85095;SDS011;75436;53.502;10.030;2024-01-30T05:47:08;16.50;;;9.52;;
85095;SDS011;75436;53.502;10.030;2024-01-30T05:49:34;15.68;;;9.18;;
85095;SDS011;75436;53.502;10.030;2024-01-30T05:52:02;18.33;;;9.57;;
85095;SDS011;75436;53.502;10.030;2024-01-30T05:54:28;16.63;;;9.40;;
85095;SDS011;75436;53.502;10.030;2024-01-30T05:56:54;16.70;;;9.75;;
85095;SDS011;75436;53.502;10.030;2024-01-30T05:59:19;16.15;;;9.63;;
85095;SDS011;75436;53.502;10.030;2024-01-30T06:01:46;17.10;;;9.55;;
85095;SDS011;75436;53.502;10.030;2024-01-30T06:04:15;18.33;;;9.07;;
85095;SDS011;75436;53.502;10.030;2024-01-30T06:06:41;16.95;;;8.95;;
85095;SDS011;75436;53.502;10.030;2024-01-30T06:09:07;17.00;;;9.63;;
85095;SDS011;75436;53.502;10.030;2024-01-30T06:11:37;15.45;;;9.75;;
85095;SDS011;75436;53.502;10.030;2024-01-30T06:14:07;16.00;;;9.35;;
85095;SDS011;75436;53.502;10.030;2024-01-30T06:16:33;18.75;;;9.60;;
85095;SDS011;75436;53.502;10.030;2024-01-30T06:18:59;18.50;;;8.93;;
85095;SDS011;75436;53.502;10.030;2024-01-30T06:21:26;17.73;;;9.90;;
85095;SDS011;75436;53.502;10.030;2024-01-30T06:23:51;18.05;;;10.57;;
85095;SDS011;75436;53.502;10.030;2024-01-30T06:26:17;20.60;;;10.38;;
85095;SDS011;75436;53.502;10.030;2024-01-30T06:28:43;17.27;;;9.60;;
85095;SDS011;75436;53.502;10.030;2024-01-30T06:31:09;15.50;;;8.43;;
85095;SDS011;75436;53.502;10.030;2024-01-30T06:33:35;16.50;;;9.38;;
85095;SDS011;75436;53.502;10.030;2024-01-30T06:36:01;14.60;;;9.55;;
85095;SDS011;75436;53.502;10.030;2024-01-30T06:38:26;18.67;;;9.93;;
85095;SDS011;75436;53.502;10.030;2024-01-30T06:40:52;17.40;;;9.38;;
85095;SDS011;75436;53.502;10.030;2024-01-30T06:43:17;18.77;;;9.77;;
85095;SDS011;75436;53.502;10.030;2024-01-30T06:45:42;17.50;;;9.18;;
85095;SDS011;75436;53.502;10.030;2024-01-30T06:48:08;16.10;;;9.35;;
85095;SDS011;75436;53.502;10.030;2024-01-30T06:50:34;18.20;;;9.60;;
85095;SDS011;75436;53.502;10.030;2024-01-30T06:53:00;18.25;;;9.07;;
85095;SDS011;75436;53.502;10.030;2024-01-30T06:55:26;21.85;;;10.50;;
85095;SDS011;75436;53.502;10.030;2024-01-30T06:57:53;17.88;;;10.55;;
85095;SDS011;75436;53.502;10.030;2024-01-30T07:00:18;15.82;;;10.00;;
85095;SDS011;75436;53.502;10.030;2024-01-30T07:02:46;16.13;;;9.13;;
85095;SDS011;75436;53.502;10.030;2024-01-30T07:05:13;17.83;;;9.70;;
85095;SDS011;75436;53.502;10.030;2024-01-30T07:07:39;17.58;;;9.80;;
85095;SDS011;75436;53.502;10.030;2024-01-30T07:10:04;19.05;;;9.80;;
85095;SDS011;75436;53.502;10.030;2024-01-30T07:12:31;19.48;;;8.80;;
85095;SDS011;75436;53.502;10.030;2024-01-30T07:14:57;21.75;;;9.35;;
85095;SDS011;75436;53.502;10.030;2024-01-30T07:17:25;16.85;;;9.63;;
85095;SDS011;75436;53.502;10.030;2024-01-30T07:19:51;14.43;;;9.07;;
85095;SDS011;75436;53.502;10.030;2024-01-30T07:22:16;18.52;;;10.00;;
85095;SDS011;75436;53.502;10.030;2024-01-30T07:24:44;15.90;;;9.50;;
85095;SDS011;75436;53.502;10.030;2024-01-30T07:27:12;17.77;;;9.68;;
85095;SDS011;75436;53.502;10.030;2024-01-30T07:29:38;18.38;;;9.38;;
85095;SDS011;75436;53.502;10.030;2024-01-30T07:32:04;17.90;;;8.98;;
85095;SDS011;75436;53.502;10.030;2024-01-30T07:34:34;18.83;;;9.60;;
85095;SDS011;75436;53.502;10.030;2024-01-30T07:37:19;18.52;;;10.32;;
85095;SDS011;75436;53.502;10.030;2024-01-30T07:39:44;16.95;;;9.48;;
85095;SDS011;75436;53.502;10.030;2024-01-30T07:42:10;16.38;;;9.38;;
85095;SDS011;75436;53.502;10.030;2024-01-30T07:44:35;18.25;;;9.93;;
85095;SDS011;75436;53.502;10.030;2024-01-30T07:47:01;17.17;;;10.23;;
85095;SDS011;75436;53.502;10.030;2024-01-30T07:49:29;19.60;;;9.43;;
85095;SDS011;75436;53.502;10.030;2024-01-30T07:51:54;16.90;;;9.75;;
85095;SDS011;75436;53.502;10.030;2024-01-30T07:54:20;20.52;;;9.85;;
85095;SDS011;75436;53.502;10.030;2024-01-30T07:56:45;16.80;;;10.55;;
85095;SDS011;75436;53.502;10.030;2024-01-30T07:59:12;18.73;;;9.95;;
85095;SDS011;75436;53.502;10.030;2024-01-30T08:01:38;18.05;;;9.93;;
85095;SDS011;75436;53.502;10.030;2024-01-30T08:04:03;16.70;;;9.98;;
85095;SDS011;75436;53.502;10.030;2024-01-30T08:06:29;22.70;;;12.15;;
85095;SDS011;75436;53.502;10.030;2024-01-30T08:08:55;20.27;;;11.43;;
85095;SDS011;75436;53.502;10.030;2024-01-30T08:11:22;19.38;;;11.20;;
85095;SDS011;75436;53.502;10.030;2024-01-30T08:13:51;19.52;;;10.93;;
85095;SDS011;75436;53.502;10.030;2024-01-30T08:16:19;22.50;;;11.05;;
85095;SDS011;75436;53.502;10.030;2024-01-30T08:18:46;18.67;;;10.38;;
85095;SDS011;75436;53.502;10.030;2024-01-30T08:21:11;18.58;;;10.98;;
85095;SDS011;75436;53.502;10.030;2024-01-30T08:23:38;19.38;;;10.02;;
85095;SDS011;75436;53.502;10.030;2024-01-30T08:26:06;15.10;;;9.75;;
85095;SDS011;75436;53.502;10.030;2024-01-30T08:28:32;21.50;;;10.27;;
85095;SDS011;75436;53.502;10.030;2024-01-30T08:30:59;18.98;;;10.23;;
85095;SDS011;75436;53.502;10.030;2024-01-30T08:33:24;17.98;;;10.23;;
85095;SDS011;75436;53.502;10.030;2024-01-30T08:35:50;17.60;;;10.52;;
85095;SDS011;75436;53.502;10.030;2024-01-30T08:38:16;20.42;;;10.23;;
85095;SDS011;75436;53.502;10.030;2024-01-30T08:40:42;16.80;;;9.65;;
85095;SDS011;75436;53.502;10.030;2024-01-30T08:43:09;23.73;;;10.50;;
85095;SDS011;75436;53.502;10.030;2024-01-30T08:45:35;18.75;;;11.27;;
85095;SDS011;75436;53.502;10.030;2024-01-30T08:48:02;20.55;;;10.77;;
85095;SDS011;75436;53.502;10.030;2024-01-30T08:50:28;19.25;;;10.65;;
85095;SDS011;75436;53.502;10.030;2024-01-30T08:52:54;22.40;;;12.15;;
85095;SDS011;75436;53.502;10.030;2024-01-30T08:55:20;22.05;;;12.25;;
85095;SDS011;75436;53.502;10.030;2024-01-30T08:57:45;19.13;;;11.30;;
85095;SDS011;75436;53.502;10.030;2024-01-30T09:00:11;21.95;;;11.35;;
85095;SDS011;75436;53.502;10.030;2024-01-30T09:02:37;21.52;;;11.02;;
85095;SDS011;75436;53.502;10.030;2024-01-30T09:05:03;17.67;;;10.75;;
85095;SDS011;75436;53.502;10.030;2024-01-30T09:07:28;19.30;;;10.07;;
85095;SDS011;75436;53.502;10.030;2024-01-30T09:09:54;16.77;;;10.23;;
85095;SDS011;75436;53.502;10.030;2024-01-30T09:12:19;16.30;;;10.15;;
85095;SDS011;75436;53.502;10.030;2024-01-30T09:14:45;17.73;;;9.45;;
85095;SDS011;75436;53.502;10.030;2024-01-30T09:17:11;20.67;;;10.10;;
85095;SDS011;75436;53.502;10.030;2024-01-30T09:19:38;15.93;;;9.68;;
85095;SDS011;75436;53.502;10.030;2024-01-30T09:22:03;17.60;;;10.43;;
85095;SDS011;75436;53.502;10.030;2024-01-30T09:24:29;16.90;;;9.90;;
85095;SDS011;75436;53.502;10.030;2024-01-30T09:26:54;16.60;;;9.50;;
85095;SDS011;75436;53.502;10.030;2024-01-30T09:29:20;16.27;;;9.40;;
85095;SDS011;75436;53.502;10.030;2024-01-30T09:31:47;20.50;;;10.73;;
85095;SDS011;75436;53.502;10.030;2024-01-30T09:34:14;23.70;;;10.07;;
85095;SDS011;75436;53.502;10.030;2024-01-30T09:36:39;16.65;;;9.48;;
85095;SDS011;75436;53.502;10.030;2024-01-30T09:39:05;16.10;;;9.32;;
85095;SDS011;75436;53.502;10.030;2024-01-30T09:41:38;18.27;;;10.07;;
85095;SDS011;75436;53.502;10.030;2024-01-30T09:44:14;16.30;;;9.18;;
85095;SDS011;75436;53.502;10.030;2024-01-30T09:46:42;21.42;;;9.80;;
85095;SDS011;75436;53.502;10.030;2024-01-30T09:49:13;16.63;;;9.52;;
85095;SDS011;75436;53.502;10.030;2024-01-30T09:51:39;16.40;;;10.00;;
85095;SDS011;75436;53.502;10.030;2024-01-30T09:54:07;16.80;;;10.50;;
85095;SDS011;75436;53.502;10.030;2024-01-30T09:56:34;17.83;;;10.02;;
85095;SDS011;75436;53.502;10.030;2024-01-30T09:59:00;18.17;;;10.55;;
85095;SDS011;75436;53.502;10.030;2024-01-30T10:01:25;21.33;;;11.55;;
85095;SDS011;75436;53.502;10.030;2024-01-30T10:03:52;19.73;;;10.82;;
85095;SDS011;75436;53.502;10.030;2024-01-30T10:06:17;16.20;;;10.02;;
85095;SDS011;75436;53.502;10.030;2024-01-30T10:08:46;16.67;;;10.10;;
85095;SDS011;75436;53.502;10.030;2024-01-30T10:11:12;16.40;;;9.50;;
85095;SDS011;75436;53.502;10.030;2024-01-30T10:13:38;17.45;;;9.95;;
85095;SDS011;75436;53.502;10.030;2024-01-30T10:16:04;19.10;;;9.60;;
85095;SDS011;75436;53.502;10.030;2024-01-30T10:18:31;17.98;;;9.68;;
85095;SDS011;75436;53.502;10.030;2024-01-30T10:20:58;16.13;;;9.45;;
85095;SDS011;75436;53.502;10.030;2024-01-30T10:23:24;15.88;;;9.25;;
85095;SDS011;75436;53.502;10.030;2024-01-30T10:25:53;17.17;;;9.05;;
85095;SDS011;75436;53.502;10.030;2024-01-30T10:28:20;15.10;;;9.25;;
85095;SDS011;75436;53.502;10.030;2024-01-30T10:30:46;17.20;;;9.45;;
85095;SDS011;75436;53.502;10.030;2024-01-30T10:33:22;14.10;;;8.80;;
85095;SDS011;75436;53.502;10.030;2024-01-30T10:35:48;19.25;;;9.63;;
85095;SDS011;75436;53.502;10.030;2024-01-30T10:38:15;18.63;;;10.20;;
85095;SDS011;75436;53.502;10.030;2024-01-30T10:40:43;15.93;;;9.05;;
85095;SDS011;75436;53.502;10.030;2024-01-30T10:43:10;17.10;;;9.68;;
85095;SDS011;75436;53.502;10.030;2024-01-30T10:45:39;13.93;;;9.00;;
85095;SDS011;75436;53.502;10.030;2024-01-30T10:48:07;15.73;;;9.23;;
85095;SDS011;75436;53.502;10.030;2024-01-30T10:50:36;15.35;;;9.02;;
85095;SDS011;75436;53.502;10.030;2024-01-30T10:53:03;14.30;;;8.57;;
85095;SDS011;75436;53.502;10.030;2024-01-30T10:55:29;16.85;;;9.38;;
85095;SDS011;75436;53.502;10.030;2024-01-30T10:57:56;15.43;;;9.10;;
85095;SDS011;75436;53.502;10.030;2024-01-30T11:00:22;18.83;;;9.63;;
85095;SDS011;75436;53.502;10.030;2024-01-30T11:02:50;13.98;;;8.27;;
85095;SDS011;75436;53.502;10.030;2024-01-30T11:05:23;16.98;;;8.65;;
85095;SDS011;75436;53.502;10.030;2024-01-30T11:07:51;16.00;;;9.10;;
85095;SDS011;75436;53.502;10.030;2024-01-30T11:10:17;14.98;;;9.02;;
85095;SDS011;75436;53.502;10.030;2024-01-30T11:12:42;12.60;;;7.93;;
85095;SDS011;75436;53.502;10.030;2024-01-30T11:15:16;13.60;;;8.82;;
85095;SDS011;75436;53.502;10.030;2024-01-30T11:20:18;13.75;;;8.15;;
85095;SDS011;75436;53.502;10.030;2024-01-30T11:22:50;16.23;;;8.65;;
85095;SDS011;75436;53.502;10.030;2024-01-30T11:25:19;15.77;;;8.48;;
85095;SDS011;75436;53.502;10.030;2024-01-30T11:27:47;13.32;;;8.27;;
85095;SDS011;75436;53.502;10.030;2024-01-30T11:30:23;14.40;;;8.20;;
85095;SDS011;75436;53.502;10.030;2024-01-30T11:35:37;17.10;;;8.60;;
85095;SDS011;75436;53.502;10.030;2024-01-30T11:38:06;14.40;;;8.40;;
85095;SDS011;75436;53.502;10.030;2024-01-30T11:40:36;14.45;;;8.35;;
85095;SDS011;75436;53.502;10.030;2024-01-30T11:43:03;13.88;;;7.60;;
85095;SDS011;75436;53.502;10.030;2024-01-30T11:45:32;13.98;;;7.57;;
85095;SDS011;75436;53.502;10.030;2024-01-30T11:47:59;14.43;;;7.82;;
85095;SDS011;75436;53.502;10.030;2024-01-30T11:50:27;11.43;;;7.65;;
85095;SDS011;75436;53.502;10.030;2024-01-30T11:52:54;15.57;;;8.80;;
85095;SDS011;75436;53.502;10.030;2024-01-30T11:55:20;12.68;;;7.63;;
85095;SDS011;75436;53.502;10.030;2024-01-30T11:57:45;14.02;;;7.80;;
85095;SDS011;75436;53.502;10.030;2024-01-30T12:00:15;14.70;;;8.00;;
85095;SDS011;75436;53.502;10.030;2024-01-30T12:02:54;13.13;;;7.15;;
85095;SDS011;75436;53.502;10.030;2024-01-30T12:05:21;15.60;;;7.78;;
85095;SDS011;75436;53.502;10.030;2024-01-30T12:07:47;15.70;;;7.80;;
85095;SDS011;75436;53.502;10.030;2024-01-30T12:10:13;15.63;;;8.07;;
85095;SDS011;75436;53.502;10.030;2024-01-30T12:12:44;12.50;;;6.68;;
85095;SDS011;75436;53.502;10.030;2024-01-30T12:15:12;14.80;;;7.50;;
85095;SDS011;75436;53.502;10.030;2024-01-30T12:17:38;14.38;;;8.07;;
85095;SDS011;75436;53.502;10.030;2024-01-30T12:20:06;13.05;;;7.80;;
85095;SDS011;75436;53.502;10.030;2024-01-30T12:22:36;15.45;;;7.78;;
85095;SDS011;75436;53.502;10.030;2024-01-30T12:25:10;12.60;;;7.57;;
85095;SDS011;75436;53.502;10.030;2024-01-30T12:27:44;15.35;;;8.13;;
85095;SDS011;75436;53.502;10.030;2024-01-30T12:30:12;10.65;;;7.07;;
85095;SDS011;75436;53.502;10.030;2024-01-30T12:32:41;15.38;;;7.90;;
85095;SDS011;75436;53.502;10.030;2024-01-30T12:37:43;20.17;;;8.57;;
85095;SDS011;75436;53.502;10.030;2024-01-30T12:40:11;14.60;;;8.48;;
85095;SDS011;75436;53.502;10.030;2024-01-30T12:42:39;16.02;;;7.97;;
85095;SDS011;75436;53.502;10.030;2024-01-30T12:45:13;11.70;;;7.45;;
85095;SDS011;75436;53.502;10.030;2024-01-30T12:47:39;13.02;;;6.93;;
85095;SDS011;75436;53.502;10.030;2024-01-30T12:50:06;11.48;;;7.10;;
85095;SDS011;75436;53.502;10.030;2024-01-30T12:52:34;14.57;;;7.75;;
85095;SDS011;75436;53.502;10.030;2024-01-30T12:55:00;12.95;;;7.15;;
85095;SDS011;75436;53.502;10.030;2024-01-30T12:57:26;11.20;;;7.47;;
85095;SDS011;75436;53.502;10.030;2024-01-30T12:59:51;12.70;;;6.55;;
85095;SDS011;75436;53.502;10.030;2024-01-30T13:02:18;16.17;;;6.88;;
85095;SDS011;75436;53.502;10.030;2024-01-30T13:04:45;15.77;;;7.25;;
85095;SDS011;75436;53.502;10.030;2024-01-30T13:07:11;11.48;;;6.93;;
85095;SDS011;75436;53.502;10.030;2024-01-30T13:09:36;16.33;;;6.72;;
85095;SDS011;75436;53.502;10.030;2024-01-30T13:12:03;12.68;;;6.90;;
85095;SDS011;75436;53.502;10.030;2024-01-30T13:14:28;10.48;;;6.53;;
85095;SDS011;75436;53.502;10.030;2024-01-30T13:16:54;12.55;;;6.50;;
85095;SDS011;75436;53.502;10.030;2024-01-30T13:19:21;16.65;;;6.60;;
85095;SDS011;75436;53.502;10.030;2024-01-30T13:21:48;14.23;;;6.93;;
85095;SDS011;75436;53.502;10.030;2024-01-30T13:24:13;12.07;;;6.20;;
85095;SDS011;75436;53.502;10.030;2024-01-30T13:26:39;13.45;;;6.45;;
85095;SDS011;75436;53.502;10.030;2024-01-30T13:29:05;14.52;;;7.32;;
85095;SDS011;75436;53.502;10.030;2024-01-30T13:31:30;12.50;;;6.70;;
85095;SDS011;75436;53.502;10.030;2024-01-30T13:33:56;16.75;;;6.80;;
85095;SDS011;75436;53.502;10.030;2024-01-30T13:36:21;14.52;;;7.03;;
85095;SDS011;75436;53.502;10.030;2024-01-30T13:38:47;13.32;;;6.60;;
85095;SDS011;75436;53.502;10.030;2024-01-30T13:41:14;12.35;;;6.60;;
85095;SDS011;75436;53.502;10.030;2024-01-30T13:43:43;11.82;;;6.85;;
85095;SDS011;75436;53.502;10.030;2024-01-30T13:46:09;11.80;;;7.03;;
85095;SDS011;75436;53.502;10.030;2024-01-30T13:48:35;12.60;;;6.47;;
85095;SDS011;75436;53.502;10.030;2024-01-30T13:51:02;14.00;;;7.45;;
85095;SDS011;75436;53.502;10.030;2024-01-30T13:53:29;13.30;;;6.47;;
85095;SDS011;75436;53.502;10.030;2024-01-30T13:55:54;12.52;;;6.50;;
85095;SDS011;75436;53.502;10.030;2024-01-30T13:58:21;13.35;;;6.90;;
85095;SDS011;75436;53.502;10.030;2024-01-30T14:00:47;12.63;;;6.78;;
85095;SDS011;75436;53.502;10.030;2024-01-30T14:03:14;13.38;;;6.53;;
85095;SDS011;75436;53.502;10.030;2024-01-30T14:05:39;9.95;;;6.20;;
85095;SDS011;75436;53.502;10.030;2024-01-30T14:08:05;11.63;;;6.35;;
85095;SDS011;75436;53.502;10.030;2024-01-30T14:10:33;15.02;;;7.07;;
85095;SDS011;75436;53.502;10.030;2024-01-30T14:12:59;12.55;;;6.40;;
85095;SDS011;75436;53.502;10.030;2024-01-30T14:15:24;14.18;;;6.85;;
85095;SDS011;75436;53.502;10.030;2024-01-30T14:17:50;12.32;;;6.60;;
85095;SDS011;75436;53.502;10.030;2024-01-30T14:20:16;12.38;;;6.85;;
85095;SDS011;75436;53.502;10.030;2024-01-30T14:22:42;11.38;;;6.93;;
85095;SDS011;75436;53.502;10.030;2024-01-30T14:25:08;11.63;;;6.57;;